Fyrbyggaren — SDJP — position and weather

sailwx.info

Track history (hours):
 
Tides and Currents Weather Stations Pressure Air Temp Water Temp Dewpoint Dewpoint Depression Visibility Wind Speed Wind Dir Waves Ship Positions

Fyrbyggaren

Last reported at 2015-May-12 15:33 UTC. Time now 2015-May-26 07:47 UTC.
Position N 55°15' E 015°59'.
Warning: this ship's position is 13 days out of date.

Length 42 m; draft 4 m.

Type: Pollution control. MMSI: 265289000.

Date/timePositionNaut miles runAvg speedWind from/ knotsBaromVisibWave heightAir tempDewpointWater temp
2015-May-12 15:33N 55°15' E 015°59'3 2.5
2015-May-12 14:31N 55°14' E 015°55'1111.3
2015-May-12 13:33N 55°08' E 015°39'1111.2
2015-May-12 12:33N 55°02' E 015°22'1111.2
2015-May-12 11:33N 54°57' E 015°05'1111.2
2015-May-12 10:34N 54°58' E 014°46'1111.2
2015-May-12 09:33N 54°59' E 014°26'1111.2
2015-May-12 08:33N 55°00' E 014°07'2 1.7
2015-May-12 07:34N 55°01' E 014°04'1110.9
2015-May-12 06:33N 55°11' E 013°58'1110.8
2015-May-12 05:33N 55°21' E 013°50'4 4.2
2015-May-12 04:31N 55°26' E 013°49'0 0.0
2015-May-12 03:31N 55°26' E 013°49'0 0.0
2015-May-12 02:31N 55°26' E 013°49'0 0.0
2015-May-12 01:31N 55°26' E 013°49'0 0.0
2015-May-11 11:28N 55°26' E 013°49'0 0.0
2015-May-11 04:19N 55°26' E 013°49'0 0.0
2015-May-11 00:25N 55°26' E 013°49'0 0.0
2015-May-10 23:31N 55°26' E 013°49'0 0.0
2015-May-10 22:31N 55°26' E 013°49'0 0.0
2015-May-10 21:31N 55°26' E 013°49'0 0.0
2015-May-10 20:25N 55°26' E 013°49'0 0.0
2015-May-10 19:19N 55°26' E 013°49'0 0.0
2015-May-10 17:25N 55°26' E 013°49'7 8.3
2015-May-10 16:34N 55°19' E 013°45'1110.9
2015-May-10 15:34N 55°08' E 013°40'14 6.9
2015-May-10 13:32N 55°07' E 013°16'6 6.4
2015-May-10 12:33N 55°12' E 013°09'5 4.7
2015-May-10 11:34N 55°17' E 013°10'5 5.1
2015-May-10 10:33N 55°17' E 013°19'4 3.5
2015-May-10 09:32N 55°13' E 013°16'2 2.4
2015-May-10 08:34N 55°14' E 013°20'3 2.9
2015-May-10 07:33N 55°13' E 013°25'3 3.2
2015-May-10 06:33N 55°15' E 013°30'5 4.7
2015-May-10 05:32N 55°13' E 013°38'1010.5
2015-May-10 04:33N 55°17' E 013°55'1110.9
2015-May-10 03:34N 55°21' E 014°12'1110.8
2015-May-10 02:34N 55°31' E 014°22'3 2.8
2015-May-10 01:31N 55°33' E 014°21'12 1.5
2015-May-09 17:33N 55°36' E 014°42'6 5.5
2015-May-09 16:30N 55°37' E 014°52'1310.5
2015-May-09 15:16N 55°40' E 015°14'1211.1
2015-May-09 14:10N 55°44' E 015°35'5 8.4
2015-May-09 13:33N 55°45' E 015°44'7 7.0
2015-May-09 12:33N 55°45' E 015°56'7 5.9
2015-May-09 11:25N 55°50' E 015°48'2 2.5
2015-May-09 10:33N 55°52' E 015°50'2 2.0
2015-May-09 09:21N 55°51' E 015°46'2 2.8
2015-May-09 08:33N 55°53' E 015°44'76 5.7
2015-May-08 19:19N 57°02' E 016°41'6 7.8
2015-May-08 18:33N 57°07' E 016°46'8 7.7
2015-May-08 17:33N 57°14' E 016°52'8 7.6
2015-May-08 16:33N 57°21' E 016°58'8 7.5
2015-May-08 15:33N 57°28' E 017°03'4 4.1
2015-May-08 14:34N 57°31' E 016°59'3 3.4
2015-May-08 13:33N 57°34' E 016°54'93 2.2
2015-May-06 20:17N 58°59' E 018°04'  
2015-May-04 08:30N 57°39' E 016°49'1111.2
2015-May-04 07:33N 57°28' E 016°51'1111.3
2015-May-04 06:33N 57°17' E 016°47'1211.4
2015-May-04 05:31N 57°06' E 016°43'62 4.4
2015-May-03 15:25N 56°08' E 016°01'3110.6
2015-May-03 12:31N 55°49' E 015°17'1211.1
2015-May-03 11:25N 55°44' E 014°58'911.0
2015-May-03 10:33N 55°39' E 014°43'13 1.3
2015-May-03 00:22N 55°33' E 014°22'0 0.0
2015-May-02 23:28N 55°33' E 014°22'0 0.0
2015-May-02 22:28N 55°33' E 014°22'0 0.0
2015-May-02 21:28N 55°33' E 014°22'0 0.0
2015-May-02 20:28N 55°33' E 014°22'0 0.0
2015-May-02 19:28N 55°33' E 014°22'0 0.0
2015-May-02 18:28N 55°33' E 014°22'0 0.0
2015-May-02 17:28N 55°33' E 014°22'0 0.0
2015-May-02 16:28N 55°33' E 014°22'  
Track history (hours):
 
Tides and Currents Weather Stations Pressure Air Temp Water Temp Dewpoint Dewpoint Depression Visibility Wind Speed Wind Dir Waves Ship Positions

Fyrbyggaren

Last reported at 2015-May-12 15:33 UTC. Time now 2015-May-26 07:47 UTC.
Position N 55°15' E 015°59'.
Warning: this ship's position is 13 days out of date.

Length 42 m; draft 4 m.

Type: Pollution control. MMSI: 265289000.

Date/timePositionNaut miles runAvg speedWind from/ knotsBaromVisibWave heightAir tempDewpointWater temp
2015-May-12 15:33N 55°15' E 015°59'3 2.5
2015-May-12 14:31N 55°14' E 015°55'1111.3
2015-May-12 13:33N 55°08' E 015°39'1111.2
2015-May-12 12:33N 55°02' E 015°22'1111.2
2015-May-12 11:33N 54°57' E 015°05'1111.2
2015-May-12 10:34N 54°58' E 014°46'1111.2
2015-May-12 09:33N 54°59' E 014°26'1111.2
2015-May-12 08:33N 55°00' E 014°07'2 1.7
2015-May-12 07:34N 55°01' E 014°04'1110.9
2015-May-12 06:33N 55°11' E 013°58'1110.8
2015-May-12 05:33N 55°21' E 013°50'4 4.2
2015-May-12 04:31N 55°26' E 013°49'0 0.0
2015-May-12 03:31N 55°26' E 013°49'0 0.0
2015-May-12 02:31N 55°26' E 013°49'0 0.0
2015-May-12 01:31N 55°26' E 013°49'0 0.0
2015-May-11 11:28N 55°26' E 013°49'0 0.0
2015-May-11 04:19N 55°26' E 013°49'0 0.0
2015-May-11 00:25N 55°26' E 013°49'0 0.0
2015-May-10 23:31N 55°26' E 013°49'0 0.0
2015-May-10 22:31N 55°26' E 013°49'0 0.0
2015-May-10 21:31N 55°26' E 013°49'0 0.0
2015-May-10 20:25N 55°26' E 013°49'0 0.0
2015-May-10 19:19N 55°26' E 013°49'0 0.0
2015-May-10 17:25N 55°26' E 013°49'7 8.3
2015-May-10 16:34N 55°19' E 013°45'1110.9
2015-May-10 15:34N 55°08' E 013°40'14 6.9
2015-May-10 13:32N 55°07' E 013°16'6 6.4
2015-May-10 12:33N 55°12' E 013°09'5 4.7
2015-May-10 11:34N 55°17' E 013°10'5 5.1
2015-May-10 10:33N 55°17' E 013°19'4 3.5
2015-May-10 09:32N 55°13' E 013°16'2 2.4
2015-May-10 08:34N 55°14' E 013°20'3 2.9
2015-May-10 07:33N 55°13' E 013°25'3 3.2
2015-May-10 06:33N 55°15' E 013°30'5 4.7
2015-May-10 05:32N 55°13' E 013°38'1010.5
2015-May-10 04:33N 55°17' E 013°55'1110.9
2015-May-10 03:34N 55°21' E 014°12'1110.8
2015-May-10 02:34N 55°31' E 014°22'3 2.8
2015-May-10 01:31N 55°33' E 014°21'12 1.5
2015-May-09 17:33N 55°36' E 014°42'6 5.5
2015-May-09 16:30N 55°37' E 014°52'1310.5
2015-May-09 15:16N 55°40' E 015°14'1211.1
2015-May-09 14:10N 55°44' E 015°35'5 8.4
2015-May-09 13:33N 55°45' E 015°44'7 7.0
2015-May-09 12:33N 55°45' E 015°56'7 5.9
2015-May-09 11:25N 55°50' E 015°48'2 2.5
2015-May-09 10:33N 55°52' E 015°50'2 2.0
2015-May-09 09:21N 55°51' E 015°46'2 2.8
2015-May-09 08:33N 55°53' E 015°44'76 5.7
2015-May-08 19:19N 57°02' E 016°41'6 7.8
2015-May-08 18:33N 57°07' E 016°46'8 7.7
2015-May-08 17:33N 57°14' E 016°52'8 7.6
2015-May-08 16:33N 57°21' E 016°58'8 7.5
2015-May-08 15:33N 57°28' E 017°03'4 4.1
2015-May-08 14:34N 57°31' E 016°59'3 3.4
2015-May-08 13:33N 57°34' E 016°54'93 2.2
2015-May-06 20:17N 58°59' E 018°04'  
2015-May-04 08:30N 57°39' E 016°49'1111.2
2015-May-04 07:33N 57°28' E 016°51'1111.3
2015-May-04 06:33N 57°17' E 016°47'1211.4
2015-May-04 05:31N 57°06' E 016°43'62 4.4
2015-May-03 15:25N 56°08' E 016°01'3110.6
2015-May-03 12:31N 55°49' E 015°17'1211.1
2015-May-03 11:25N 55°44' E 014°58'911.0
2015-May-03 10:33N 55°39' E 014°43'13 1.3
2015-May-03 00:22N 55°33' E 014°22'0 0.0
2015-May-02 23:28N 55°33' E 014°22'0 0.0
2015-May-02 22:28N 55°33' E 014°22'0 0.0
2015-May-02 21:28N 55°33' E 014°22'0 0.0
2015-May-02 20:28N 55°33' E 014°22'0 0.0
2015-May-02 19:28N 55°33' E 014°22'0 0.0
2015-May-02 18:28N 55°33' E 014°22'0 0.0
2015-May-02 17:28N 55°33' E 014°22'0 0.0
2015-May-02 16:28N 55°33' E 014°22'  

Dump ship's entire track history